sensor_id;sensor_type;location;lat;lon;timestamp;temperature;humidity
20246;DHT22;10281;54.406;18.556;2023-09-30T00:02:19;17.70;99.90
20246;DHT22;10281;54.406;18.556;2023-09-30T00:04:46;17.70;99.90
20246;DHT22;10281;54.406;18.556;2023-09-30T00:07:12;17.60;99.90
20246;DHT22;10281;54.406;18.556;2023-09-30T00:09:39;17.60;99.90
20246;DHT22;10281;54.406;18.556;2023-09-30T00:12:06;17.60;99.90
20246;DHT22;10281;54.406;18.556;2023-09-30T00:14:33;17.60;99.90
20246;DHT22;10281;54.406;18.556;2023-09-30T00:16:59;17.60;99.90
20246;DHT22;10281;54.406;18.556;2023-09-30T00:19:26;17.60;99.90
20246;DHT22;10281;54.406;18.556;2023-09-30T00:21:52;17.50;99.90
20246;DHT22;10281;54.406;18.556;2023-09-30T00:24:19;17.50;99.90
20246;DHT22;10281;54.406;18.556;2023-09-30T00:26:46;17.50;99.90
20246;DHT22;10281;54.406;18.556;2023-09-30T00:29:13;17.40;99.90
20246;DHT22;10281;54.406;18.556;2023-09-30T00:31:40;17.40;99.90
20246;DHT22;10281;54.406;18.556;2023-09-30T00:34:06;17.40;99.90
20246;DHT22;10281;54.406;18.556;2023-09-30T00:36:34;17.40;99.90
20246;DHT22;10281;54.406;18.556;2023-09-30T00:39:01;17.30;99.90
20246;DHT22;10281;54.406;18.556;2023-09-30T00:41:27;17.30;99.90
20246;DHT22;10281;54.406;18.556;2023-09-30T00:43:54;17.30;99.90
20246;DHT22;10281;54.406;18.556;2023-09-30T00:46:29;17.20;99.90
20246;DHT22;10281;54.406;18.556;2023-09-30T00:48:58;17.20;99.90
20246;DHT22;10281;54.406;18.556;2023-09-30T00:51:26;17.20;99.90
20246;DHT22;10281;54.406;18.556;2023-09-30T00:53:55;17.30;99.90
20246;DHT22;10281;54.406;18.556;2023-09-30T00:56:25;17.30;99.90
20246;DHT22;10281;54.406;18.556;2023-09-30T00:58:52;17.30;99.90
20246;DHT22;10281;54.406;18.556;2023-09-30T01:01:20;17.30;99.90
20246;DHT22;10281;54.406;18.556;2023-09-30T01:03:47;17.30;99.90
20246;DHT22;10281;54.406;18.556;2023-09-30T01:06:14;17.30;99.90
20246;DHT22;10281;54.406;18.556;2023-09-30T01:08:41;17.30;99.90
20246;DHT22;10281;54.406;18.556;2023-09-30T01:11:08;17.40;99.90
20246;DHT22;10281;54.406;18.556;2023-09-30T01:13:36;17.30;99.90
20246;DHT22;10281;54.406;18.556;2023-09-30T01:16:06;17.40;99.90
20246;DHT22;10281;54.406;18.556;2023-09-30T01:18:33;17.40;99.90
20246;DHT22;10281;54.406;18.556;2023-09-30T01:21:04;17.40;99.90
20246;DHT22;10281;54.406;18.556;2023-09-30T01:23:32;17.30;99.90
20246;DHT22;10281;54.406;18.556;2023-09-30T01:26:03;17.30;99.90
20246;DHT22;10281;54.406;18.556;2023-09-30T01:28:30;17.40;99.90
20246;DHT22;10281;54.406;18.556;2023-09-30T01:30:57;17.30;99.90
20246;DHT22;10281;54.406;18.556;2023-09-30T01:33:24;17.30;99.90
20246;DHT22;10281;54.406;18.556;2023-09-30T01:35:51;17.30;99.90
20246;DHT22;10281;54.406;18.556;2023-09-30T01:38:18;17.20;99.90
20246;DHT22;10281;54.406;18.556;2023-09-30T01:40:44;17.30;99.90
20246;DHT22;10281;54.406;18.556;2023-09-30T01:43:11;17.30;99.90
20246;DHT22;10281;54.406;18.556;2023-09-30T01:45:40;17.30;99.90
20246;DHT22;10281;54.406;18.556;2023-09-30T01:48:07;17.30;99.90
20246;DHT22;10281;54.406;18.556;2023-09-30T01:50:35;17.30;99.90
20246;DHT22;10281;54.406;18.556;2023-09-30T01:53:02;17.20;99.90
20246;DHT22;10281;54.406;18.556;2023-09-30T01:55:29;17.20;99.90
20246;DHT22;10281;54.406;18.556;2023-09-30T01:57:56;17.20;99.90
20246;DHT22;10281;54.406;18.556;2023-09-30T02:00:22;17.30;99.90
20246;DHT22;10281;54.406;18.556;2023-09-30T02:02:49;17.20;99.90
20246;DHT22;10281;54.406;18.556;2023-09-30T02:05:16;17.20;99.90
20246;DHT22;10281;54.406;18.556;2023-09-30T02:07:42;17.20;99.90
20246;DHT22;10281;54.406;18.556;2023-09-30T02:10:09;17.20;99.90
20246;DHT22;10281;54.406;18.556;2023-09-30T02:12:36;17.20;99.90
20246;DHT22;10281;54.406;18.556;2023-09-30T02:15:04;17.20;99.90
20246;DHT22;10281;54.406;18.556;2023-09-30T02:17:33;17.20;99.90
20246;DHT22;10281;54.406;18.556;2023-09-30T02:19:59;17.20;99.90
20246;DHT22;10281;54.406;18.556;2023-09-30T02:22:28;17.20;99.90
20246;DHT22;10281;54.406;18.556;2023-09-30T02:24:55;17.20;99.90
20246;DHT22;10281;54.406;18.556;2023-09-30T02:27:21;17.20;99.90
20246;DHT22;10281;54.406;18.556;2023-09-30T02:29:48;17.20;99.90
20246;DHT22;10281;54.406;18.556;2023-09-30T02:32:15;17.20;99.90
20246;DHT22;10281;54.406;18.556;2023-09-30T02:34:41;17.30;99.90
20246;DHT22;10281;54.406;18.556;2023-09-30T02:37:08;17.30;99.90
20246;DHT22;10281;54.406;18.556;2023-09-30T02:39:36;17.30;99.90
20246;DHT22;10281;54.406;18.556;2023-09-30T02:42:03;17.40;99.90
20246;DHT22;10281;54.406;18.556;2023-09-30T02:44:29;17.40;99.90
20246;DHT22;10281;54.406;18.556;2023-09-30T02:46:56;17.40;99.90
20246;DHT22;10281;54.406;18.556;2023-09-30T02:49:23;17.40;99.90
20246;DHT22;10281;54.406;18.556;2023-09-30T02:51:49;17.40;99.90
20246;DHT22;10281;54.406;18.556;2023-09-30T02:54:16;17.50;99.90
20246;DHT22;10281;54.406;18.556;2023-09-30T02:56:43;17.50;99.90
20246;DHT22;10281;54.406;18.556;2023-09-30T02:59:13;17.50;99.90
20246;DHT22;10281;54.406;18.556;2023-09-30T03:01:42;17.50;99.90
20246;DHT22;10281;54.406;18.556;2023-09-30T03:04:08;17.50;99.90
20246;DHT22;10281;54.406;18.556;2023-09-30T03:06:35;17.60;99.90
20246;DHT22;10281;54.406;18.556;2023-09-30T03:09:05;17.60;99.90
20246;DHT22;10281;54.406;18.556;2023-09-30T03:11:31;17.70;99.90
20246;DHT22;10281;54.406;18.556;2023-09-30T03:13:59;17.70;99.90
20246;DHT22;10281;54.406;18.556;2023-09-30T03:16:26;17.70;99.90
20246;DHT22;10281;54.406;18.556;2023-09-30T03:18:52;17.70;99.90
20246;DHT22;10281;54.406;18.556;2023-09-30T03:21:21;17.70;99.90
20246;DHT22;10281;54.406;18.556;2023-09-30T03:23:47;17.70;99.90
20246;DHT22;10281;54.406;18.556;2023-09-30T03:26:14;17.70;99.90
20246;DHT22;10281;54.406;18.556;2023-09-30T03:28:41;17.70;99.90
20246;DHT22;10281;54.406;18.556;2023-09-30T03:31:08;17.80;99.90
20246;DHT22;10281;54.406;18.556;2023-09-30T03:33:37;17.80;99.90
20246;DHT22;10281;54.406;18.556;2023-09-30T03:36:08;17.80;99.90
20246;DHT22;10281;54.406;18.556;2023-09-30T03:38:35;17.80;99.90
20246;DHT22;10281;54.406;18.556;2023-09-30T03:41:02;17.90;99.90
20246;DHT22;10281;54.406;18.556;2023-09-30T03:43:29;17.90;99.90
20246;DHT22;10281;54.406;18.556;2023-09-30T03:45:55;17.80;99.90
20246;DHT22;10281;54.406;18.556;2023-09-30T03:48:23;17.80;99.90
20246;DHT22;10281;54.406;18.556;2023-09-30T03:50:50;17.70;99.90
20246;DHT22;10281;54.406;18.556;2023-09-30T03:53:18;17.60;99.90
20246;DHT22;10281;54.406;18.556;2023-09-30T03:55:45;17.50;99.90
20246;DHT22;10281;54.406;18.556;2023-09-30T03:58:12;17.40;99.90
20246;DHT22;10281;54.406;18.556;2023-09-30T04:00:39;17.30;99.90
20246;DHT22;10281;54.406;18.556;2023-09-30T04:03:05;17.30;99.90
20246;DHT22;10281;54.406;18.556;2023-09-30T04:05:32;17.20;99.90
20246;DHT22;10281;54.406;18.556;2023-09-30T04:08:01;17.20;99.90
20246;DHT22;10281;54.406;18.556;2023-09-30T04:10:27;17.20;99.90
20246;DHT22;10281;54.406;18.556;2023-09-30T04:12:56;17.10;99.90
20246;DHT22;10281;54.406;18.556;2023-09-30T04:15:22;17.10;99.90
20246;DHT22;10281;54.406;18.556;2023-09-30T04:17:49;17.00;99.90
20246;DHT22;10281;54.406;18.556;2023-09-30T04:20:17;16.90;99.90
20246;DHT22;10281;54.406;18.556;2023-09-30T04:22:46;16.90;99.90
20246;DHT22;10281;54.406;18.556;2023-09-30T04:25:15;16.90;99.90
20246;DHT22;10281;54.406;18.556;2023-09-30T04:27:43;16.90;99.90
20246;DHT22;10281;54.406;18.556;2023-09-30T04:30:11;16.80;99.90
20246;DHT22;10281;54.406;18.556;2023-09-30T04:32:38;16.80;99.90
20246;DHT22;10281;54.406;18.556;2023-09-30T04:35:05;16.70;99.90
20246;DHT22;10281;54.406;18.556;2023-09-30T04:37:34;16.70;99.90
20246;DHT22;10281;54.406;18.556;2023-09-30T04:40:04;16.70;99.90
20246;DHT22;10281;54.406;18.556;2023-09-30T04:42:35;16.70;99.90
20246;DHT22;10281;54.406;18.556;2023-09-30T04:45:03;16.60;99.90
20246;DHT22;10281;54.406;18.556;2023-09-30T04:47:32;16.60;99.90
20246;DHT22;10281;54.406;18.556;2023-09-30T04:49:59;16.60;99.90
20246;DHT22;10281;54.406;18.556;2023-09-30T04:52:28;16.60;99.90
20246;DHT22;10281;54.406;18.556;2023-09-30T04:54:54;16.60;99.90
20246;DHT22;10281;54.406;18.556;2023-09-30T04:57:21;16.50;99.90
20246;DHT22;10281;54.406;18.556;2023-09-30T04:59:48;16.50;99.90
20246;DHT22;10281;54.406;18.556;2023-09-30T05:02:15;16.50;99.90
20246;DHT22;10281;54.406;18.556;2023-09-30T05:04:41;16.50;99.90
20246;DHT22;10281;54.406;18.556;2023-09-30T05:07:09;16.40;99.90
20246;DHT22;10281;54.406;18.556;2023-09-30T05:09:35;16.40;99.90
20246;DHT22;10281;54.406;18.556;2023-09-30T05:12:02;16.30;99.90
20246;DHT22;10281;54.406;18.556;2023-09-30T05:14:31;16.30;99.90
20246;DHT22;10281;54.406;18.556;2023-09-30T05:16:59;16.20;99.90
20246;DHT22;10281;54.406;18.556;2023-09-30T05:19:25;16.20;99.90
20246;DHT22;10281;54.406;18.556;2023-09-30T05:21:52;16.20;99.90
20246;DHT22;10281;54.406;18.556;2023-09-30T05:24:19;16.20;99.90
20246;DHT22;10281;54.406;18.556;2023-09-30T05:26:47;16.10;99.90
20246;DHT22;10281;54.406;18.556;2023-09-30T05:29:14;16.00;99.90
20246;DHT22;10281;54.406;18.556;2023-09-30T05:31:42;16.00;99.90
20246;DHT22;10281;54.406;18.556;2023-09-30T05:34:09;15.90;99.90
20246;DHT22;10281;54.406;18.556;2023-09-30T05:36:36;15.80;99.90
20246;DHT22;10281;54.406;18.556;2023-09-30T05:39:02;15.80;99.90
20246;DHT22;10281;54.406;18.556;2023-09-30T05:41:31;15.80;99.90
20246;DHT22;10281;54.406;18.556;2023-09-30T05:43:58;15.70;99.90
20246;DHT22;10281;54.406;18.556;2023-09-30T05:46:26;15.70;99.90
20246;DHT22;10281;54.406;18.556;2023-09-30T05:48:53;15.70;99.90
20246;DHT22;10281;54.406;18.556;2023-09-30T05:51:20;15.80;99.90
20246;DHT22;10281;54.406;18.556;2023-09-30T05:53:47;15.70;99.90
20246;DHT22;10281;54.406;18.556;2023-09-30T05:56:14;15.70;99.90
20246;DHT22;10281;54.406;18.556;2023-09-30T05:58:42;15.70;99.90
20246;DHT22;10281;54.406;18.556;2023-09-30T06:01:09;15.70;99.90
20246;DHT22;10281;54.406;18.556;2023-09-30T06:03:38;15.70;99.90
20246;DHT22;10281;54.406;18.556;2023-09-30T06:06:12;15.70;99.90
20246;DHT22;10281;54.406;18.556;2023-09-30T06:08:40;15.70;99.90
20246;DHT22;10281;54.406;18.556;2023-09-30T06:11:06;15.70;99.90
20246;DHT22;10281;54.406;18.556;2023-09-30T06:13:33;15.70;99.90
20246;DHT22;10281;54.406;18.556;2023-09-30T06:15:59;15.70;99.90
20246;DHT22;10281;54.406;18.556;2023-09-30T06:18:28;15.70;99.90
20246;DHT22;10281;54.406;18.556;2023-09-30T06:20:55;15.80;99.90
20246;DHT22;10281;54.406;18.556;2023-09-30T06:23:21;15.80;99.90
20246;DHT22;10281;54.406;18.556;2023-09-30T06:25:48;15.70;99.90
20246;DHT22;10281;54.406;18.556;2023-09-30T06:28:14;15.80;99.90
20246;DHT22;10281;54.406;18.556;2023-09-30T06:30:41;15.80;99.90
20246;DHT22;10281;54.406;18.556;2023-09-30T06:33:10;15.80;99.90
20246;DHT22;10281;54.406;18.556;2023-09-30T06:35:40;15.80;99.90
20246;DHT22;10281;54.406;18.556;2023-09-30T06:38:09;15.80;99.90
20246;DHT22;10281;54.406;18.556;2023-09-30T06:40:36;15.80;99.90
20246;DHT22;10281;54.406;18.556;2023-09-30T06:43:04;15.80;99.90
20246;DHT22;10281;54.406;18.556;2023-09-30T06:45:31;15.90;99.90
20246;DHT22;10281;54.406;18.556;2023-09-30T06:47:58;15.90;99.90
20246;DHT22;10281;54.406;18.556;2023-09-30T06:50:25;15.90;99.90
20246;DHT22;10281;54.406;18.556;2023-09-30T06:52:51;15.90;99.90
20246;DHT22;10281;54.406;18.556;2023-09-30T06:55:18;16.00;99.90
20246;DHT22;10281;54.406;18.556;2023-09-30T06:57:45;16.00;99.90
20246;DHT22;10281;54.406;18.556;2023-09-30T07:00:13;16.00;99.90
20246;DHT22;10281;54.406;18.556;2023-09-30T07:02:40;16.00;99.90
20246;DHT22;10281;54.406;18.556;2023-09-30T07:05:09;16.00;99.90
20246;DHT22;10281;54.406;18.556;2023-09-30T07:07:37;16.00;99.90
20246;DHT22;10281;54.406;18.556;2023-09-30T07:10:04;16.00;99.90
20246;DHT22;10281;54.406;18.556;2023-09-30T07:12:31;16.00;99.90
20246;DHT22;10281;54.406;18.556;2023-09-30T07:15:03;16.00;99.90
20246;DHT22;10281;54.406;18.556;2023-09-30T07:17:31;16.00;99.90
20246;DHT22;10281;54.406;18.556;2023-09-30T07:19:58;16.10;99.90
20246;DHT22;10281;54.406;18.556;2023-09-30T07:22:25;16.10;99.90
20246;DHT22;10281;54.406;18.556;2023-09-30T07:24:52;16.10;99.90
20246;DHT22;10281;54.406;18.556;2023-09-30T07:27:18;16.10;99.90
20246;DHT22;10281;54.406;18.556;2023-09-30T07:29:45;16.20;99.90
20246;DHT22;10281;54.406;18.556;2023-09-30T07:32:12;16.20;99.90
20246;DHT22;10281;54.406;18.556;2023-09-30T07:34:39;16.30;99.90
20246;DHT22;10281;54.406;18.556;2023-09-30T07:37:05;16.30;99.90
20246;DHT22;10281;54.406;18.556;2023-09-30T07:39:32;16.30;99.90
20246;DHT22;10281;54.406;18.556;2023-09-30T07:41:59;16.30;99.90
20246;DHT22;10281;54.406;18.556;2023-09-30T07:44:25;16.30;99.90
20246;DHT22;10281;54.406;18.556;2023-09-30T07:46:52;16.40;99.90
20246;DHT22;10281;54.406;18.556;2023-09-30T07:49:19;16.50;99.90
20246;DHT22;10281;54.406;18.556;2023-09-30T07:51:46;16.50;99.90
20246;DHT22;10281;54.406;18.556;2023-09-30T07:54:12;16.60;99.90
20246;DHT22;10281;54.406;18.556;2023-09-30T07:56:39;16.70;99.90
20246;DHT22;10281;54.406;18.556;2023-09-30T07:59:06;16.70;99.90
20246;DHT22;10281;54.406;18.556;2023-09-30T08:01:32;16.70;99.90
20246;DHT22;10281;54.406;18.556;2023-09-30T08:03:59;16.80;99.90
20246;DHT22;10281;54.406;18.556;2023-09-30T08:06:25;16.70;99.90
20246;DHT22;10281;54.406;18.556;2023-09-30T08:08:52;16.80;99.90
20246;DHT22;10281;54.406;18.556;2023-09-30T08:11:21;16.80;99.90
20246;DHT22;10281;54.406;18.556;2023-09-30T08:13:47;16.80;99.90
20246;DHT22;10281;54.406;18.556;2023-09-30T08:16:14;16.80;99.90
20246;DHT22;10281;54.406;18.556;2023-09-30T08:18:41;16.90;99.90
20246;DHT22;10281;54.406;18.556;2023-09-30T08:21:09;16.80;99.90
20246;DHT22;10281;54.406;18.556;2023-09-30T08:23:38;16.80;99.90
20246;DHT22;10281;54.406;18.556;2023-09-30T08:26:05;16.80;99.90
20246;DHT22;10281;54.406;18.556;2023-09-30T08:28:32;16.80;99.90
20246;DHT22;10281;54.406;18.556;2023-09-30T08:31:03;16.80;99.90
20246;DHT22;10281;54.406;18.556;2023-09-30T08:33:31;16.80;99.90
20246;DHT22;10281;54.406;18.556;2023-09-30T08:36:03;16.80;99.90
20246;DHT22;10281;54.406;18.556;2023-09-30T08:38:32;16.90;99.90
20246;DHT22;10281;54.406;18.556;2023-09-30T08:40:59;17.00;99.90
20246;DHT22;10281;54.406;18.556;2023-09-30T08:43:26;17.10;99.90
20246;DHT22;10281;54.406;18.556;2023-09-30T08:45:55;17.30;99.90
20246;DHT22;10281;54.406;18.556;2023-09-30T08:48:23;17.30;99.90
20246;DHT22;10281;54.406;18.556;2023-09-30T08:50:53;17.30;99.90
20246;DHT22;10281;54.406;18.556;2023-09-30T08:53:23;17.40;99.90
20246;DHT22;10281;54.406;18.556;2023-09-30T08:55:53;17.40;99.90
20246;DHT22;10281;54.406;18.556;2023-09-30T08:58:23;17.40;99.90
20246;DHT22;10281;54.406;18.556;2023-09-30T09:00:51;17.40;99.90
20246;DHT22;10281;54.406;18.556;2023-09-30T09:03:19;17.40;99.90
20246;DHT22;10281;54.406;18.556;2023-09-30T09:05:53;17.30;99.90
20246;DHT22;10281;54.406;18.556;2023-09-30T09:08:15;17.40;99.90
20246;DHT22;10281;54.406;18.556;2023-09-30T09:10:53;17.40;99.90
20246;DHT22;10281;54.406;18.556;2023-09-30T09:13:13;17.50;99.90
20246;DHT22;10281;54.406;18.556;2023-09-30T09:15:41;17.50;99.90
20246;DHT22;10281;54.406;18.556;2023-09-30T09:18:07;17.50;99.90
20246;DHT22;10281;54.406;18.556;2023-09-30T09:20:34;17.60;99.90
20246;DHT22;10281;54.406;18.556;2023-09-30T09:23:00;17.60;99.90
20246;DHT22;10281;54.406;18.556;2023-09-30T09:25:27;17.70;99.90
20246;DHT22;10281;54.406;18.556;2023-09-30T09:27:54;17.60;99.90
20246;DHT22;10281;54.406;18.556;2023-09-30T09:30:23;17.70;99.90
20246;DHT22;10281;54.406;18.556;2023-09-30T09:33:09;17.70;99.90
20246;DHT22;10281;54.406;18.556;2023-09-30T09:35:35;17.90;99.90
20246;DHT22;10281;54.406;18.556;2023-09-30T09:38:04;18.00;99.90
20246;DHT22;10281;54.406;18.556;2023-09-30T09:40:34;18.20;99.90
20246;DHT22;10281;54.406;18.556;2023-09-30T09:43:02;18.30;99.90
20246;DHT22;10281;54.406;18.556;2023-09-30T09:45:35;18.50;99.90
20246;DHT22;10281;54.406;18.556;2023-09-30T09:48:03;18.50;99.90
20246;DHT22;10281;54.406;18.556;2023-09-30T09:50:31;18.60;99.90
20246;DHT22;10281;54.406;18.556;2023-09-30T09:52:58;18.60;99.90
20246;DHT22;10281;54.406;18.556;2023-09-30T09:55:27;18.70;99.90
20246;DHT22;10281;54.406;18.556;2023-09-30T09:57:54;18.70;99.90
20246;DHT22;10281;54.406;18.556;2023-09-30T10:00:24;18.70;99.90
20246;DHT22;10281;54.406;18.556;2023-09-30T10:02:52;18.70;99.90
20246;DHT22;10281;54.406;18.556;2023-09-30T10:05:20;18.80;99.90
20246;DHT22;10281;54.406;18.556;2023-09-30T10:07:57;18.80;99.90
20246;DHT22;10281;54.406;18.556;2023-09-30T10:10:26;18.80;99.90
20246;DHT22;10281;54.406;18.556;2023-09-30T10:12:54;18.80;99.90
20246;DHT22;10281;54.406;18.556;2023-09-30T10:15:39;18.80;99.90
20246;DHT22;10281;54.406;18.556;2023-09-30T10:18:09;18.80;99.90
20246;DHT22;10281;54.406;18.556;2023-09-30T10:20:39;18.90;99.90
20246;DHT22;10281;54.406;18.556;2023-09-30T10:23:17;18.80;99.90
20246;DHT22;10281;54.406;18.556;2023-09-30T10:25:47;18.90;99.90
20246;DHT22;10281;54.406;18.556;2023-09-30T10:33:31;19.00;99.90
20246;DHT22;10281;54.406;18.556;2023-09-30T10:35:57;18.80;99.90
20246;DHT22;10281;54.406;18.556;2023-09-30T10:38:40;18.70;99.90
20246;DHT22;10281;54.406;18.556;2023-09-30T10:41:06;18.60;99.90
20246;DHT22;10281;54.406;18.556;2023-09-30T10:43:37;18.50;99.90
20246;DHT22;10281;54.406;18.556;2023-09-30T10:46:45;18.50;99.90
20246;DHT22;10281;54.406;18.556;2023-09-30T10:49:14;18.40;99.90
20246;DHT22;10281;54.406;18.556;2023-09-30T10:51:43;18.30;99.90
20246;DHT22;10281;54.406;18.556;2023-09-30T10:54:12;18.20;99.90
20246;DHT22;10281;54.406;18.556;2023-09-30T10:56:39;18.10;99.90
20246;DHT22;10281;54.406;18.556;2023-09-30T10:59:06;18.10;99.90
20246;DHT22;10281;54.406;18.556;2023-09-30T11:01:34;18.20;99.90
20246;DHT22;10281;54.406;18.556;2023-09-30T11:04:03;18.20;99.90
20246;DHT22;10281;54.406;18.556;2023-09-30T11:06:31;18.10;99.90
20246;DHT22;10281;54.406;18.556;2023-09-30T11:09:00;18.10;99.90
20246;DHT22;10281;54.406;18.556;2023-09-30T11:11:37;18.10;99.90
20246;DHT22;10281;54.406;18.556;2023-09-30T11:16:41;18.00;99.90
20246;DHT22;10281;54.406;18.556;2023-09-30T11:19:10;17.90;99.90
20246;DHT22;10281;54.406;18.556;2023-09-30T11:21:38;18.00;99.90
20246;DHT22;10281;54.406;18.556;2023-09-30T11:24:07;18.00;99.90
20246;DHT22;10281;54.406;18.556;2023-09-30T11:26:34;18.10;99.90
20246;DHT22;10281;54.406;18.556;2023-09-30T11:29:09;18.20;99.90
20246;DHT22;10281;54.406;18.556;2023-09-30T11:31:38;18.20;99.90
20246;DHT22;10281;54.406;18.556;2023-09-30T11:34:05;18.30;99.90
20246;DHT22;10281;54.406;18.556;2023-09-30T11:36:36;18.30;99.90
20246;DHT22;10281;54.406;18.556;2023-09-30T11:39:04;18.30;99.90
20246;DHT22;10281;54.406;18.556;2023-09-30T11:41:36;18.30;99.90
20246;DHT22;10281;54.406;18.556;2023-09-30T11:44:10;18.20;99.90
20246;DHT22;10281;54.406;18.556;2023-09-30T11:46:48;18.00;99.90
20246;DHT22;10281;54.406;18.556;2023-09-30T11:49:29;18.00;99.90
20246;DHT22;10281;54.406;18.556;2023-09-30T11:51:57;18.00;99.90
20246;DHT22;10281;54.406;18.556;2023-09-30T11:54:33;18.00;99.90
20246;DHT22;10281;54.406;18.556;2023-09-30T11:57:01;18.10;99.90
20246;DHT22;10281;54.406;18.556;2023-09-30T11:59:29;18.20;99.90
20246;DHT22;10281;54.406;18.556;2023-09-30T12:01:57;18.30;99.90
20246;DHT22;10281;54.406;18.556;2023-09-30T12:04:24;18.40;99.90
20246;DHT22;10281;54.406;18.556;2023-09-30T12:06:51;18.40;99.90
20246;DHT22;10281;54.406;18.556;2023-09-30T12:09:18;18.40;99.90
20246;DHT22;10281;54.406;18.556;2023-09-30T12:11:49;18.40;99.90
20246;DHT22;10281;54.406;18.556;2023-09-30T12:14:15;18.40;99.90
20246;DHT22;10281;54.406;18.556;2023-09-30T12:16:42;18.50;99.90
20246;DHT22;10281;54.406;18.556;2023-09-30T12:19:11;18.50;99.90
20246;DHT22;10281;54.406;18.556;2023-09-30T12:21:40;18.50;99.90
20246;DHT22;10281;54.406;18.556;2023-09-30T12:24:07;18.60;99.90
20246;DHT22;10281;54.406;18.556;2023-09-30T12:26:35;18.60;99.90
20246;DHT22;10281;54.406;18.556;2023-09-30T12:29:04;18.70;99.90
20246;DHT22;10281;54.406;18.556;2023-09-30T12:31:31;18.70;99.90
20246;DHT22;10281;54.406;18.556;2023-09-30T12:33:59;18.60;99.90
20246;DHT22;10281;54.406;18.556;2023-09-30T12:36:26;18.50;99.90
20246;DHT22;10281;54.406;18.556;2023-09-30T12:38:52;18.50;99.90
20246;DHT22;10281;54.406;18.556;2023-09-30T12:41:19;18.50;99.90
20246;DHT22;10281;54.406;18.556;2023-09-30T12:43:45;18.50;99.90
20246;DHT22;10281;54.406;18.556;2023-09-30T12:46:12;18.50;99.90
20246;DHT22;10281;54.406;18.556;2023-09-30T12:48:40;18.60;99.90
20246;DHT22;10281;54.406;18.556;2023-09-30T12:51:07;18.60;99.90
20246;DHT22;10281;54.406;18.556;2023-09-30T12:53:36;18.60;99.90
20246;DHT22;10281;54.406;18.556;2023-09-30T12:56:03;18.60;99.90
20246;DHT22;10281;54.406;18.556;2023-09-30T12:58:30;18.70;99.90
20246;DHT22;10281;54.406;18.556;2023-09-30T13:00:56;18.80;99.90
20246;DHT22;10281;54.406;18.556;2023-09-30T13:03:24;18.90;99.90
20246;DHT22;10281;54.406;18.556;2023-09-30T13:05:50;18.90;99.90
20246;DHT22;10281;54.406;18.556;2023-09-30T13:08:17;18.90;99.90
20246;DHT22;10281;54.406;18.556;2023-09-30T13:10:44;18.90;99.90
20246;DHT22;10281;54.406;18.556;2023-09-30T13:13:11;18.90;99.90
20246;DHT22;10281;54.406;18.556;2023-09-30T13:15:38;18.70;99.90
20246;DHT22;10281;54.406;18.556;2023-09-30T13:18:04;18.70;99.90
20246;DHT22;10281;54.406;18.556;2023-09-30T13:20:31;18.60;99.90
20246;DHT22;10281;54.406;18.556;2023-09-30T13:22:58;18.60;99.90
20246;DHT22;10281;54.406;18.556;2023-09-30T13:25:24;18.50;99.90
20246;DHT22;10281;54.406;18.556;2023-09-30T13:27:52;18.50;99.90
20246;DHT22;10281;54.406;18.556;2023-09-30T13:30:19;18.50;99.90
20246;DHT22;10281;54.406;18.556;2023-09-30T13:32:45;18.50;99.90
20246;DHT22;10281;54.406;18.556;2023-09-30T13:35:12;18.50;99.90
20246;DHT22;10281;54.406;18.556;2023-09-30T13:37:38;18.50;99.90
20246;DHT22;10281;54.406;18.556;2023-09-30T13:40:06;18.50;99.90
20246;DHT22;10281;54.406;18.556;2023-09-30T13:42:37;18.50;99.90
20246;DHT22;10281;54.406;18.556;2023-09-30T13:45:04;18.50;99.90
20246;DHT22;10281;54.406;18.556;2023-09-30T13:47:32;18.50;99.90
20246;DHT22;10281;54.406;18.556;2023-09-30T13:50:00;18.40;99.90
20246;DHT22;10281;54.406;18.556;2023-09-30T13:52:29;18.30;99.90
20246;DHT22;10281;54.406;18.556;2023-09-30T13:54:56;18.30;99.90
20246;DHT22;10281;54.406;18.556;2023-09-30T13:57:23;18.30;99.90
20246;DHT22;10281;54.406;18.556;2023-09-30T13:59:49;18.30;99.90
20246;DHT22;10281;54.406;18.556;2023-09-30T14:02:16;18.30;99.90
20246;DHT22;10281;54.406;18.556;2023-09-30T14:04:43;18.30;99.90
20246;DHT22;10281;54.406;18.556;2023-09-30T14:07:11;18.30;99.90
20246;DHT22;10281;54.406;18.556;2023-09-30T14:09:37;18.20;99.90
20246;DHT22;10281;54.406;18.556;2023-09-30T14:12:04;18.10;99.90
20246;DHT22;10281;54.406;18.556;2023-09-30T14:14:33;18.00;99.90
20246;DHT22;10281;54.406;18.556;2023-09-30T14:17:00;18.00;99.90
20246;DHT22;10281;54.406;18.556;2023-09-30T14:19:29;17.90;99.90
20246;DHT22;10281;54.406;18.556;2023-09-30T14:21:55;17.80;99.90
20246;DHT22;10281;54.406;18.556;2023-09-30T14:24:23;17.80;99.90
20246;DHT22;10281;54.406;18.556;2023-09-30T14:26:50;17.70;99.90
20246;DHT22;10281;54.406;18.556;2023-09-30T14:29:17;17.80;99.90
20246;DHT22;10281;54.406;18.556;2023-09-30T14:31:43;17.80;99.90
20246;DHT22;10281;54.406;18.556;2023-09-30T14:34:10;17.80;99.90
20246;DHT22;10281;54.406;18.556;2023-09-30T14:36:36;17.70;99.90
20246;DHT22;10281;54.406;18.556;2023-09-30T14:39:03;17.70;99.90
20246;DHT22;10281;54.406;18.556;2023-09-30T14:41:31;17.70;99.90
20246;DHT22;10281;54.406;18.556;2023-09-30T14:43:58;17.60;99.90
20246;DHT22;10281;54.406;18.556;2023-09-30T14:46:26;17.60;99.90
20246;DHT22;10281;54.406;18.556;2023-09-30T14:48:53;17.60;99.90
20246;DHT22;10281;54.406;18.556;2023-09-30T14:51:23;17.50;99.90
20246;DHT22;10281;54.406;18.556;2023-09-30T14:53:49;17.40;99.90
20246;DHT22;10281;54.406;18.556;2023-09-30T14:56:17;17.40;99.90
20246;DHT22;10281;54.406;18.556;2023-09-30T14:58:45;17.40;99.90
20246;DHT22;10281;54.406;18.556;2023-09-30T15:01:12;17.40;99.90
20246;DHT22;10281;54.406;18.556;2023-09-30T15:03:38;17.40;99.90
20246;DHT22;10281;54.406;18.556;2023-09-30T15:06:05;17.40;99.90
20246;DHT22;10281;54.406;18.556;2023-09-30T15:08:33;17.30;99.90
20246;DHT22;10281;54.406;18.556;2023-09-30T15:11:00;17.20;99.90
20246;DHT22;10281;54.406;18.556;2023-09-30T15:13:28;17.30;99.90
20246;DHT22;10281;54.406;18.556;2023-09-30T15:15:55;17.30;99.90
20246;DHT22;10281;54.406;18.556;2023-09-30T15:18:22;17.30;99.90
20246;DHT22;10281;54.406;18.556;2023-09-30T15:20:49;17.20;99.90
20246;DHT22;10281;54.406;18.556;2023-09-30T15:23:16;17.10;99.90
20246;DHT22;10281;54.406;18.556;2023-09-30T15:25:43;17.10;99.90
20246;DHT22;10281;54.406;18.556;2023-09-30T15:28:12;17.10;99.90